Time;durP1;ratioP1;P1;durP2;ratioP2;P2;SDS_P1;SDS_P2;PMS_P1;PMS_P2;Temp;Humidity;BMP_temperature;BMP_pressure;BME280_temperature;BME280_humidity;BME280_pressure;Samples;Min_cycle;Max_cycle;Signal;HPM_P1;HPM_P2
2021/03/09 00:01:50;;;;;;;14.87;8.30;;;;;;;-4.03;100.00;101082.88;20541421;27;7676364;-61
2021/03/09 00:11:51;;;;;;;10.33;6.33;;;;;;;-3.98;100.00;101079.44;20800473;28;20330;-61
2021/03/09 00:21:57;;;;;;;9.50;5.47;;;;;;;-4.22;100.00;101077.47;20810238;28;20247;-62
2021/03/09 00:31:58;;;;;;;9.67;5.30;;;;;;;-4.40;100.00;101086.03;20882493;28;20486;-61
2021/03/09 01:02:01;;;;;;;12.87;6.30;;;;;;;-4.38;100.00;101092.13;20784260;27;7635912;-61
2021/03/09 01:12:02;;;;;;;11.73;5.50;;;;;;;-4.37;100.00;101091.28;21049930;28;20229;-60
2021/03/09 01:22:02;;;;;;;14.03;6.07;;;;;;;-4.34;100.00;101086.06;21049198;28;20691;-60
2021/03/09 01:32:04;;;;;;;12.57;6.60;;;;;;;-4.37;100.00;101078.25;21030238;28;20215;-60
2021/03/09 01:42:05;;;;;;;9.70;6.20;;;;;;;-4.37;100.00;101076.53;21034750;28;20294;-60
2021/03/09 01:52:08;;;;;;;12.07;7.13;;;;;;;-4.44;100.00;101094.66;21016549;28;20302;-60
2021/03/09 02:02:09;;;;;;;12.33;7.20;;;;;;;-4.55;100.00;101086.75;21006067;28;20218;-60
2021/03/09 02:12:16;;;;;;;14.77;6.93;;;;;;;-4.65;100.00;101084.06;20966570;28;20274;-59
2021/03/09 02:22:42;;;;;;;14.03;7.33;;;;;;;-4.68;100.00;101089.22;20905473;28;20298;-59
2021/03/09 02:32:56;;;;;;;11.10;6.80;;;;;;;-4.67;100.00;101091.84;20905776;28;20219;-60
2021/03/09 02:43:01;;;;;;;16.10;7.67;;;;;;;-4.66;100.00;101092.72;20909727;28;20294;-59
2021/03/09 02:53:12;;;;;;;12.93;7.23;;;;;;;-4.75;100.00;101093.53;20904857;28;20251;-59
2021/03/09 03:03:15;;;;;;;17.77;8.60;;;;;;;-4.72;100.00;101104.84;20934399;28;20211;-59
2021/03/09 03:23:28;;;;;;;13.60;7.77;;;;;;;-4.74;100.00;101103.97;20580215;27;7710313;-59
2021/03/09 03:33:30;;;;;;;13.47;7.03;;;;;;;-4.86;100.00;101090.81;20837861;28;20235;-60
2021/03/09 03:43:31;;;;;;;10.10;5.90;;;;;;;-4.96;100.00;101107.19;20806974;28;20733;-59
2021/03/09 03:53:53;;;;;;;8.93;4.77;;;;;;;-5.11;100.00;101115.69;20859246;28;20306;-59
2021/03/09 04:03:56;;;;;;;6.67;4.60;;;;;;;-5.16;100.00;101119.06;20857055;28;20212;-59
2021/03/09 04:13:56;;;;;;;11.77;6.40;;;;;;;-5.25;100.00;101113.78;20871753;28;20703;-59
2021/03/09 04:23:58;;;;;;;12.27;7.23;;;;;;;-5.24;100.00;101107.72;20899025;28;20646;-59
2021/03/09 04:33:58;;;;;;;14.20;6.17;;;;;;;-5.34;100.00;101101.53;20851374;28;20220;-59
2021/03/09 04:43:59;;;;;;;10.20;5.97;;;;;;;-5.48;100.00;101103.94;20843127;28;20220;-59
2021/03/09 04:54:00;;;;;;;13.10;7.37;;;;;;;-5.33;100.00;101102.41;20815396;28;20498;-59
2021/03/09 05:04:00;;;;;;;36.88;18.23;;;;;;;-5.22;100.00;101101.69;20806212;28;20208;-59
2021/03/09 05:14:01;;;;;;;15.83;8.70;;;;;;;-5.11;100.00;101109.63;20843734;28;20310;-59
2021/03/09 05:24:01;;;;;;;9.97;5.33;;;;;;;-5.11;100.00;101120.03;20868749;28;20462;-59
2021/03/09 05:34:02;;;;;;;7.22;5.22;;;;;;;-5.00;100.00;101123.63;20851620;28;20485;-59
2021/03/09 05:44:04;;;;;;;8.30;5.60;;;;;;;-4.65;100.00;101115.31;20898044;28;20279;-60
2021/03/09 05:54:05;;;;;;;11.57;6.77;;;;;;;-4.04;100.00;101132.38;20899165;28;20219;-59
2021/03/09 06:04:06;;;;;;;10.90;6.23;;;;;;;-3.50;100.00;101144.91;20865472;28;20311;-59
2021/03/09 06:14:15;;;;;;;10.47;7.00;;;;;;;-3.23;100.00;101132.88;20819223;28;20232;-59
2021/03/09 06:24:19;;;;;;;14.23;8.63;;;;;;;-2.79;100.00;101159.19;20815614;28;20220;-60
2021/03/09 06:34:21;;;;;;;14.20;8.43;;;;;;;-2.41;100.00;101156.66;20821183;28;20713;-60
2021/03/09 06:44:23;;;;;;;11.07;7.13;;;;;;;-1.93;100.00;101177.63;20815045;28;20220;-60
2021/03/09 06:54:23;;;;;;;10.37;7.00;;;;;;;-1.62;100.00;101178.50;20812024;28;20349;-61
2021/03/09 07:04:24;;;;;;;13.00;6.70;;;;;;;-1.47;100.00;101185.47;20809662;28;20319;-61
2021/03/09 07:14:24;;;;;;;13.90;8.87;;;;;;;-1.20;100.00;101188.00;20810068;28;20240;-61
2021/03/09 07:24:25;;;;;;;18.45;9.77;;;;;;;-0.84;100.00;101187.00;20834578;28;20301;-61
2021/03/09 07:34:27;;;;;;;14.23;7.17;;;;;;;-0.74;98.63;101195.72;20890899;28;20588;-59
2021/03/09 07:44:28;;;;;;;9.03;6.20;;;;;;;-0.80;94.26;101156.44;20874780;28;20219;-58
2021/03/09 07:54:29;;;;;;;6.00;4.57;;;;;;;-0.24;93.16;101199.84;20892994;28;20251;-59
2021/03/09 08:04:29;;;;;;;6.37;3.90;;;;;;;-0.04;92.61;101197.97;20777366;28;20224;-62
2021/03/09 08:14:30;;;;;;;6.00;3.40;;;;;;;0.20;91.30;101197.78;20759124;28;20307;-64
2021/03/09 08:25:00;;;;;;;3.60;2.43;;;;;;;0.52;86.69;101189.59;20709498;28;20228;-64
2021/03/09 08:35:29;;;;;;;7.07;2.90;;;;;;;0.76;89.62;101188.50;20520207;28;20242;-61
2021/03/09 08:45:44;;;;;;;4.93;2.77;;;;;;;0.86;89.06;101184.88;20499155;28;20891;-61
2021/03/09 08:56:04;;;;;;;5.70;2.37;;;;;;;0.98;86.53;101184.75;20494051;28;20297;-59
2021/03/09 09:06:06;;;;;;;4.30;3.00;;;;;;;1.15;89.78;101186.31;20557779;28;20650;-59
2021/03/09 09:16:18;;;;;;;3.23;2.60;;;;;;;1.27;85.10;101186.16;20683151;28;20229;-58
2021/03/09 09:26:18;;;;;;;4.40;2.67;;;;;;;1.36;90.25;101180.78;20663568;28;20370;-58
2021/03/09 09:36:23;;;;;;;3.63;2.50;;;;;;;1.77;88.50;101167.94;20663585;28;20652;-58
2021/03/09 09:46:25;;;;;;;2.73;2.40;;;;;;;2.29;88.73;101176.81;20654010;28;20235;-56
2021/03/09 09:56:25;;;;;;;4.93;2.00;;;;;;;2.37;88.83;101181.03;20646583;28;20254;-57
2021/03/09 10:06:36;;;;;;;4.13;1.83;;;;;;;1.86;86.85;101176.59;20684391;28;20232;-56
2021/03/09 10:16:38;;;;;;;3.27;2.20;;;;;;;1.74;88.63;101172.38;20665540;28;20781;-57
2021/03/09 10:26:46;;;;;;;2.10;1.90;;;;;;;2.04;86.14;101157.91;20670256;28;20237;-58
2021/03/09 10:37:02;;;;;;;2.33;1.73;;;;;;;2.28;84.25;101165.41;20684747;28;20735;-59
2021/03/09 10:47:11;;;;;;;3.43;2.90;;;;;;;2.40;83.09;101141.47;20670018;28;20230;-58
2021/03/09 10:57:12;;;;;;;2.60;1.90;;;;;;;2.81;85.29;101139.81;20670178;28;20234;-57
2021/03/09 11:07:13;;;;;;;3.13;2.20;;;;;;;3.18;81.33;101140.81;20666974;28;20234;-58
2021/03/09 11:17:14;;;;;;;3.33;2.10;;;;;;;3.10;83.91;101126.94;20667731;28;20250;-58
2021/03/09 11:27:14;;;;;;;3.17;2.23;;;;;;;2.81;79.35;101138.06;20668515;28;20991;-58
2021/03/09 11:37:14;;;;;;;3.13;1.90;;;;;;;3.18;79.80;101130.28;20660748;28;20461;-59
2021/03/09 11:47:15;;;;;;;3.05;1.83;;;;;;;2.58;72.81;101121.81;20684824;28;20734;-58
2021/03/09 11:57:16;;;;;;;2.80;1.93;;;;;;;2.33;73.98;101113.50;20681525;28;20225;-58
2021/03/09 12:07:18;;;;;;;2.37;1.77;;;;;;;2.69;72.32;101103.16;20682515;28;20221;-59
2021/03/09 12:17:19;;;;;;;1.77;1.63;;;;;;;2.22;64.87;101075.09;20680198;28;20229;-58
2021/03/09 12:27:20;;;;;;;1.37;1.27;;;;;;;1.55;65.45;101065.69;20680319;28;20303;-68
2021/03/09 12:37:20;;;;;;;1.77;1.60;;;;;;;1.93;66.11;101084.38;20680253;28;20229;-62
2021/03/09 12:47:21;;;;;;;1.87;1.50;;;;;;;2.29;59.05;101066.19;20677926;28;20218;-58
2021/03/09 12:57:23;;;;;;;1.50;1.40;;;;;;;2.37;61.87;101067.78;20681069;28;20240;-57
2021/03/09 13:07:24;;;;;;;1.57;1.23;;;;;;;2.50;62.30;101050.84;20679567;28;20248;-57
2021/03/09 13:17:24;;;;;;;2.10;1.30;;;;;;;2.89;60.54;101056.22;20679303;28;20249;-57
2021/03/09 13:27:26;;;;;;;2.10;1.53;;;;;;;3.23;59.30;101046.66;20684561;28;20265;-57
2021/03/09 13:37:27;;;;;;;3.10;1.73;;;;;;;3.06;56.50;101046.16;20684921;28;20240;-57
2021/03/09 13:47:27;;;;;;;6.10;3.43;;;;;;;2.45;57.80;101046.56;20684415;28;20225;-59
2021/03/09 13:57:28;;;;;;;1.90;1.70;;;;;;;2.19;57.74;101052.31;20684251;28;20245;-58
2021/03/09 14:07:28;;;;;;;1.87;1.40;;;;;;;2.19;56.13;101033.88;20681104;28;20233;-58
